sensor_id;sensor_type;location;lat;lon;timestamp;P1;durP1;ratioP1;P2;durP2;ratioP2
22363;SDS011;11349;53.412;-1.328;2023-08-08T00:01:18;4.05;;;1.67;;
22363;SDS011;11349;53.412;-1.328;2023-08-08T00:03:43;8.63;;;2.35;;
22363;SDS011;11349;53.412;-1.328;2023-08-08T00:06:09;2.80;;;1.50;;
22363;SDS011;11349;53.412;-1.328;2023-08-08T00:08:35;4.53;;;1.70;;
22363;SDS011;11349;53.412;-1.328;2023-08-08T00:11:01;5.32;;;1.58;;
22363;SDS011;11349;53.412;-1.328;2023-08-08T00:13:27;4.13;;;1.40;;
22363;SDS011;11349;53.412;-1.328;2023-08-08T00:15:52;4.55;;;1.55;;
22363;SDS011;11349;53.412;-1.328;2023-08-08T00:18:18;4.05;;;1.17;;
22363;SDS011;11349;53.412;-1.328;2023-08-08T00:20:44;3.00;;;1.30;;
22363;SDS011;11349;53.412;-1.328;2023-08-08T00:23:09;4.30;;;1.10;;
22363;SDS011;11349;53.412;-1.328;2023-08-08T00:25:35;3.28;;;1.40;;
22363;SDS011;11349;53.412;-1.328;2023-08-08T00:28:02;3.40;;;1.33;;
22363;SDS011;11349;53.412;-1.328;2023-08-08T00:30:28;4.32;;;1.10;;
22363;SDS011;11349;53.412;-1.328;2023-08-08T00:32:54;3.83;;;1.20;;
22363;SDS011;11349;53.412;-1.328;2023-08-08T00:35:19;3.47;;;1.30;;
22363;SDS011;11349;53.412;-1.328;2023-08-08T00:37:45;3.28;;;1.73;;
22363;SDS011;11349;53.412;-1.328;2023-08-08T00:40:11;2.83;;;1.00;;
22363;SDS011;11349;53.412;-1.328;2023-08-08T00:42:36;4.57;;;1.10;;
22363;SDS011;11349;53.412;-1.328;2023-08-08T00:45:02;4.70;;;1.30;;
22363;SDS011;11349;53.412;-1.328;2023-08-08T00:47:32;2.28;;;1.00;;
22363;SDS011;11349;53.412;-1.328;2023-08-08T00:50:00;4.63;;;1.45;;
22363;SDS011;11349;53.412;-1.328;2023-08-08T00:52:29;4.68;;;1.20;;
22363;SDS011;11349;53.412;-1.328;2023-08-08T00:54:55;4.18;;;1.23;;
22363;SDS011;11349;53.412;-1.328;2023-08-08T00:57:21;4.28;;;1.50;;
22363;SDS011;11349;53.412;-1.328;2023-08-08T00:59:47;4.78;;;1.48;;
22363;SDS011;11349;53.412;-1.328;2023-08-08T01:02:13;5.25;;;1.20;;
22363;SDS011;11349;53.412;-1.328;2023-08-08T01:04:38;3.72;;;1.23;;
22363;SDS011;11349;53.412;-1.328;2023-08-08T01:09:36;5.93;;;1.20;;
22363;SDS011;11349;53.412;-1.328;2023-08-08T01:12:07;2.78;;;1.20;;
22363;SDS011;11349;53.412;-1.328;2023-08-08T01:14:35;5.68;;;1.30;;
22363;SDS011;11349;53.412;-1.328;2023-08-08T01:17:02;3.00;;;0.95;;
22363;SDS011;11349;53.412;-1.328;2023-08-08T01:19:29;2.13;;;0.88;;
22363;SDS011;11349;53.412;-1.328;2023-08-08T01:21:59;4.72;;;1.20;;
22363;SDS011;11349;53.412;-1.328;2023-08-08T01:24:30;4.05;;;1.10;;
22363;SDS011;11349;53.412;-1.328;2023-08-08T01:26:58;4.47;;;1.08;;
22363;SDS011;11349;53.412;-1.328;2023-08-08T01:29:25;4.13;;;1.08;;
22363;SDS011;11349;53.412;-1.328;2023-08-08T01:31:52;2.75;;;1.08;;
22363;SDS011;11349;53.412;-1.328;2023-08-08T01:34:17;2.33;;;1.20;;
22363;SDS011;11349;53.412;-1.328;2023-08-08T01:39:20;3.25;;;1.00;;
22363;SDS011;11349;53.412;-1.328;2023-08-08T01:41:51;2.45;;;0.90;;
22363;SDS011;11349;53.412;-1.328;2023-08-08T01:44:19;2.08;;;1.00;;
22363;SDS011;11349;53.412;-1.328;2023-08-08T01:46:46;2.92;;;1.25;;
22363;SDS011;11349;53.412;-1.328;2023-08-08T01:49:12;2.13;;;0.95;;
22363;SDS011;11349;53.412;-1.328;2023-08-08T01:51:37;2.70;;;1.13;;
22363;SDS011;11349;53.412;-1.328;2023-08-08T01:54:03;1.77;;;0.90;;
22363;SDS011;11349;53.412;-1.328;2023-08-08T01:56:29;2.45;;;0.90;;
22363;SDS011;11349;53.412;-1.328;2023-08-08T01:58:55;2.13;;;0.85;;
22363;SDS011;11349;53.412;-1.328;2023-08-08T02:01:21;2.55;;;1.20;;
22363;SDS011;11349;53.412;-1.328;2023-08-08T02:03:47;3.55;;;0.90;;
22363;SDS011;11349;53.412;-1.328;2023-08-08T02:06:13;2.72;;;1.08;;
22363;SDS011;11349;53.412;-1.328;2023-08-08T02:08:38;2.83;;;0.77;;
22363;SDS011;11349;53.412;-1.328;2023-08-08T02:11:04;2.95;;;0.77;;
22363;SDS011;11349;53.412;-1.328;2023-08-08T02:13:30;4.18;;;1.00;;
22363;SDS011;11349;53.412;-1.328;2023-08-08T02:15:56;2.58;;;0.85;;
22363;SDS011;11349;53.412;-1.328;2023-08-08T02:18:22;2.60;;;1.00;;
22363;SDS011;11349;53.412;-1.328;2023-08-08T02:20:48;2.35;;;0.90;;
22363;SDS011;11349;53.412;-1.328;2023-08-08T02:23:14;2.08;;;0.85;;
22363;SDS011;11349;53.412;-1.328;2023-08-08T02:25:39;2.35;;;0.90;;
22363;SDS011;11349;53.412;-1.328;2023-08-08T02:28:05;1.83;;;1.00;;
22363;SDS011;11349;53.412;-1.328;2023-08-08T02:30:31;3.65;;;0.80;;
22363;SDS011;11349;53.412;-1.328;2023-08-08T02:32:57;1.75;;;0.63;;
22363;SDS011;11349;53.412;-1.328;2023-08-08T02:35:22;1.50;;;0.60;;
22363;SDS011;11349;53.412;-1.328;2023-08-08T02:37:48;2.60;;;0.77;;
22363;SDS011;11349;53.412;-1.328;2023-08-08T02:40:14;1.38;;;0.60;;
22363;SDS011;11349;53.412;-1.328;2023-08-08T02:42:39;1.95;;;0.70;;
22363;SDS011;11349;53.412;-1.328;2023-08-08T02:45:05;3.40;;;1.10;;
22363;SDS011;11349;53.412;-1.328;2023-08-08T02:47:31;2.72;;;0.95;;
22363;SDS011;11349;53.412;-1.328;2023-08-08T02:49:57;2.72;;;0.80;;
22363;SDS011;11349;53.412;-1.328;2023-08-08T02:52:23;3.05;;;0.90;;
22363;SDS011;11349;53.412;-1.328;2023-08-08T02:54:49;3.22;;;0.90;;
22363;SDS011;11349;53.412;-1.328;2023-08-08T02:57:14;3.25;;;0.90;;
22363;SDS011;11349;53.412;-1.328;2023-08-08T02:59:41;2.20;;;0.80;;
22363;SDS011;11349;53.412;-1.328;2023-08-08T03:02:07;2.83;;;1.00;;
22363;SDS011;11349;53.412;-1.328;2023-08-08T03:04:32;2.67;;;1.13;;
22363;SDS011;11349;53.412;-1.328;2023-08-08T03:06:58;2.90;;;1.00;;
22363;SDS011;11349;53.412;-1.328;2023-08-08T03:09:27;3.63;;;1.85;;
22363;SDS011;11349;53.412;-1.328;2023-08-08T03:11:53;1.98;;;1.00;;
22363;SDS011;11349;53.412;-1.328;2023-08-08T03:14:19;1.55;;;0.80;;
22363;SDS011;11349;53.412;-1.328;2023-08-08T03:16:44;3.15;;;1.40;;
22363;SDS011;11349;53.412;-1.328;2023-08-08T03:19:10;3.85;;;1.10;;
22363;SDS011;11349;53.412;-1.328;2023-08-08T03:21:36;3.45;;;0.82;;
22363;SDS011;11349;53.412;-1.328;2023-08-08T03:24:02;2.63;;;1.20;;
22363;SDS011;11349;53.412;-1.328;2023-08-08T03:26:27;2.65;;;1.20;;
22363;SDS011;11349;53.412;-1.328;2023-08-08T03:28:53;3.90;;;1.30;;
22363;SDS011;11349;53.412;-1.328;2023-08-08T03:31:20;3.00;;;1.05;;
22363;SDS011;11349;53.412;-1.328;2023-08-08T03:33:46;2.60;;;1.23;;
22363;SDS011;11349;53.412;-1.328;2023-08-08T03:36:12;3.40;;;1.15;;
22363;SDS011;11349;53.412;-1.328;2023-08-08T03:38:38;3.97;;;1.40;;
22363;SDS011;11349;53.412;-1.328;2023-08-08T03:41:05;4.95;;;1.40;;
22363;SDS011;11349;53.412;-1.328;2023-08-08T03:43:31;4.47;;;1.35;;
22363;SDS011;11349;53.412;-1.328;2023-08-08T03:45:56;2.88;;;1.23;;
22363;SDS011;11349;53.412;-1.328;2023-08-08T03:48:22;3.28;;;1.10;;
22363;SDS011;11349;53.412;-1.328;2023-08-08T03:50:48;3.88;;;1.30;;
22363;SDS011;11349;53.412;-1.328;2023-08-08T03:53:14;4.57;;;1.38;;
22363;SDS011;11349;53.412;-1.328;2023-08-08T03:55:39;3.30;;;1.20;;
22363;SDS011;11349;53.412;-1.328;2023-08-08T03:58:05;3.92;;;1.20;;
22363;SDS011;11349;53.412;-1.328;2023-08-08T04:00:31;4.13;;;1.25;;
22363;SDS011;11349;53.412;-1.328;2023-08-08T04:02:57;2.40;;;1.10;;
22363;SDS011;11349;53.412;-1.328;2023-08-08T04:05:23;2.10;;;1.00;;
22363;SDS011;11349;53.412;-1.328;2023-08-08T04:07:49;4.60;;;1.33;;
22363;SDS011;11349;53.412;-1.328;2023-08-08T04:10:15;3.38;;;1.40;;
22363;SDS011;11349;53.412;-1.328;2023-08-08T04:12:41;4.78;;;1.65;;
22363;SDS011;11349;53.412;-1.328;2023-08-08T04:15:06;3.03;;;1.40;;
22363;SDS011;11349;53.412;-1.328;2023-08-08T04:17:32;2.78;;;1.40;;
22363;SDS011;11349;53.412;-1.328;2023-08-08T04:19:58;3.78;;;1.40;;
22363;SDS011;11349;53.412;-1.328;2023-08-08T04:22:24;3.17;;;1.42;;
22363;SDS011;11349;53.412;-1.328;2023-08-08T04:24:50;5.28;;;1.38;;
22363;SDS011;11349;53.412;-1.328;2023-08-08T04:27:15;6.70;;;2.17;;
22363;SDS011;11349;53.412;-1.328;2023-08-08T04:29:41;2.67;;;1.27;;
22363;SDS011;11349;53.412;-1.328;2023-08-08T04:32:07;3.53;;;1.42;;
22363;SDS011;11349;53.412;-1.328;2023-08-08T04:34:33;4.05;;;1.40;;
22363;SDS011;11349;53.412;-1.328;2023-08-08T04:36:59;3.30;;;1.67;;
22363;SDS011;11349;53.412;-1.328;2023-08-08T04:39:24;3.30;;;1.38;;
22363;SDS011;11349;53.412;-1.328;2023-08-08T04:41:50;4.88;;;1.63;;
22363;SDS011;11349;53.412;-1.328;2023-08-08T04:44:16;4.07;;;1.85;;
22363;SDS011;11349;53.412;-1.328;2023-08-08T04:46:41;5.45;;;1.55;;
22363;SDS011;11349;53.412;-1.328;2023-08-08T04:49:08;5.10;;;1.70;;
22363;SDS011;11349;53.412;-1.328;2023-08-08T04:51:34;5.38;;;2.05;;
22363;SDS011;11349;53.412;-1.328;2023-08-08T04:54:00;4.80;;;1.63;;
22363;SDS011;11349;53.412;-1.328;2023-08-08T04:56:25;3.25;;;1.90;;
22363;SDS011;11349;53.412;-1.328;2023-08-08T04:58:51;5.55;;;1.95;;
22363;SDS011;11349;53.412;-1.328;2023-08-08T05:01:17;5.57;;;1.95;;
22363;SDS011;11349;53.412;-1.328;2023-08-08T05:03:45;7.50;;;1.90;;
22363;SDS011;11349;53.412;-1.328;2023-08-08T05:06:11;5.63;;;2.38;;
22363;SDS011;11349;53.412;-1.328;2023-08-08T05:08:37;5.13;;;2.08;;
22363;SDS011;11349;53.412;-1.328;2023-08-08T05:11:02;5.00;;;2.00;;
22363;SDS011;11349;53.412;-1.328;2023-08-08T05:13:28;3.42;;;2.17;;
22363;SDS011;11349;53.412;-1.328;2023-08-08T05:15:54;5.68;;;2.72;;
22363;SDS011;11349;53.412;-1.328;2023-08-08T05:18:20;5.95;;;2.05;;
22363;SDS011;11349;53.412;-1.328;2023-08-08T05:20:45;4.43;;;1.90;;
22363;SDS011;11349;53.412;-1.328;2023-08-08T05:23:11;4.95;;;2.28;;
22363;SDS011;11349;53.412;-1.328;2023-08-08T05:25:37;7.80;;;2.53;;
22363;SDS011;11349;53.412;-1.328;2023-08-08T05:28:03;7.30;;;2.42;;
22363;SDS011;11349;53.412;-1.328;2023-08-08T05:30:28;5.55;;;2.25;;
22363;SDS011;11349;53.412;-1.328;2023-08-08T05:32:54;3.97;;;2.13;;
22363;SDS011;11349;53.412;-1.328;2023-08-08T05:35:20;5.80;;;2.70;;
22363;SDS011;11349;53.412;-1.328;2023-08-08T05:37:46;6.40;;;2.30;;
22363;SDS011;11349;53.412;-1.328;2023-08-08T05:40:11;6.90;;;2.85;;
22363;SDS011;11349;53.412;-1.328;2023-08-08T05:42:38;7.63;;;3.63;;
22363;SDS011;11349;53.412;-1.328;2023-08-08T05:45:04;5.18;;;2.50;;
22363;SDS011;11349;53.412;-1.328;2023-08-08T05:47:30;6.40;;;2.20;;
22363;SDS011;11349;53.412;-1.328;2023-08-08T05:49:56;4.60;;;2.08;;
22363;SDS011;11349;53.412;-1.328;2023-08-08T05:52:22;4.47;;;2.03;;
22363;SDS011;11349;53.412;-1.328;2023-08-08T05:54:50;4.72;;;2.08;;
22363;SDS011;11349;53.412;-1.328;2023-08-08T05:57:16;3.55;;;2.08;;
22363;SDS011;11349;53.412;-1.328;2023-08-08T05:59:42;4.68;;;2.35;;
22363;SDS011;11349;53.412;-1.328;2023-08-08T06:02:10;4.22;;;2.38;;
22363;SDS011;11349;53.412;-1.328;2023-08-08T06:04:35;7.07;;;2.30;;
22363;SDS011;11349;53.412;-1.328;2023-08-08T06:07:01;5.45;;;2.00;;
22363;SDS011;11349;53.412;-1.328;2023-08-08T06:09:27;4.43;;;2.13;;
22363;SDS011;11349;53.412;-1.328;2023-08-08T06:11:53;4.93;;;2.60;;
22363;SDS011;11349;53.412;-1.328;2023-08-08T06:14:18;7.28;;;2.40;;
22363;SDS011;11349;53.412;-1.328;2023-08-08T06:16:44;3.65;;;2.10;;
22363;SDS011;11349;53.412;-1.328;2023-08-08T06:19:11;3.40;;;2.10;;
22363;SDS011;11349;53.412;-1.328;2023-08-08T06:21:40;4.78;;;2.10;;
22363;SDS011;11349;53.412;-1.328;2023-08-08T06:24:05;6.78;;;2.50;;
22363;SDS011;11349;53.412;-1.328;2023-08-08T06:26:31;4.15;;;2.10;;
22363;SDS011;11349;53.412;-1.328;2023-08-08T06:28:57;6.20;;;2.58;;
22363;SDS011;11349;53.412;-1.328;2023-08-08T06:31:23;5.00;;;2.60;;
22363;SDS011;11349;53.412;-1.328;2023-08-08T06:33:48;6.55;;;2.78;;
22363;SDS011;11349;53.412;-1.328;2023-08-08T06:36:14;9.30;;;2.63;;
22363;SDS011;11349;53.412;-1.328;2023-08-08T06:38:40;5.75;;;2.40;;
22363;SDS011;11349;53.412;-1.328;2023-08-08T06:41:06;4.60;;;2.50;;
22363;SDS011;11349;53.412;-1.328;2023-08-08T06:43:31;5.40;;;2.60;;
22363;SDS011;11349;53.412;-1.328;2023-08-08T06:45:57;5.88;;;2.63;;
22363;SDS011;11349;53.412;-1.328;2023-08-08T06:48:23;6.82;;;2.63;;
22363;SDS011;11349;53.412;-1.328;2023-08-08T06:50:49;6.85;;;2.95;;
22363;SDS011;11349;53.412;-1.328;2023-08-08T06:53:14;4.95;;;2.40;;
22363;SDS011;11349;53.412;-1.328;2023-08-08T06:55:40;5.88;;;2.53;;
22363;SDS011;11349;53.412;-1.328;2023-08-08T06:58:06;6.40;;;2.72;;
22363;SDS011;11349;53.412;-1.328;2023-08-08T07:00:32;4.95;;;2.25;;
22363;SDS011;11349;53.412;-1.328;2023-08-08T07:02:58;6.35;;;2.67;;
22363;SDS011;11349;53.412;-1.328;2023-08-08T07:05:23;6.13;;;2.20;;
22363;SDS011;11349;53.412;-1.328;2023-08-08T07:07:50;6.00;;;2.22;;
22363;SDS011;11349;53.412;-1.328;2023-08-08T07:10:15;6.15;;;2.30;;
22363;SDS011;11349;53.412;-1.328;2023-08-08T07:12:41;4.18;;;2.47;;
22363;SDS011;11349;53.412;-1.328;2023-08-08T07:15:07;5.78;;;2.30;;
22363;SDS011;11349;53.412;-1.328;2023-08-08T07:17:34;4.60;;;1.98;;
22363;SDS011;11349;53.412;-1.328;2023-08-08T07:20:00;4.45;;;2.45;;
22363;SDS011;11349;53.412;-1.328;2023-08-08T07:22:27;6.43;;;2.80;;
22363;SDS011;11349;53.412;-1.328;2023-08-08T07:24:53;5.10;;;2.05;;
22363;SDS011;11349;53.412;-1.328;2023-08-08T07:27:18;3.25;;;1.77;;
22363;SDS011;11349;53.412;-1.328;2023-08-08T07:29:44;5.32;;;1.92;;
22363;SDS011;11349;53.412;-1.328;2023-08-08T07:32:10;5.45;;;2.00;;
22363;SDS011;11349;53.412;-1.328;2023-08-08T07:34:36;6.10;;;1.67;;
22363;SDS011;11349;53.412;-1.328;2023-08-08T07:37:01;4.07;;;1.60;;
22363;SDS011;11349;53.412;-1.328;2023-08-08T07:39:28;6.20;;;2.65;;
22363;SDS011;11349;53.412;-1.328;2023-08-08T07:41:53;4.55;;;1.70;;
22363;SDS011;11349;53.412;-1.328;2023-08-08T07:44:19;4.70;;;1.58;;
22363;SDS011;11349;53.412;-1.328;2023-08-08T07:46:45;3.13;;;1.40;;
22363;SDS011;11349;53.412;-1.328;2023-08-08T07:49:11;4.57;;;1.73;;
22363;SDS011;11349;53.412;-1.328;2023-08-08T07:51:37;7.50;;;2.30;;
22363;SDS011;11349;53.412;-1.328;2023-08-08T07:54:02;6.47;;;2.22;;
22363;SDS011;11349;53.412;-1.328;2023-08-08T07:56:32;4.68;;;1.30;;
22363;SDS011;11349;53.412;-1.328;2023-08-08T07:58:57;6.78;;;1.30;;
22363;SDS011;11349;53.412;-1.328;2023-08-08T08:01:24;5.60;;;1.35;;
22363;SDS011;11349;53.412;-1.328;2023-08-08T08:03:52;4.57;;;1.20;;
22363;SDS011;11349;53.412;-1.328;2023-08-08T08:06:18;4.43;;;1.10;;
22363;SDS011;11349;53.412;-1.328;2023-08-08T08:08:43;2.58;;;1.20;;
22363;SDS011;11349;53.412;-1.328;2023-08-08T08:11:09;3.30;;;1.20;;
22363;SDS011;11349;53.412;-1.328;2023-08-08T08:13:36;3.35;;;1.17;;
22363;SDS011;11349;53.412;-1.328;2023-08-08T08:16:01;3.97;;;1.58;;
22363;SDS011;11349;53.412;-1.328;2023-08-08T08:18:27;5.30;;;1.83;;
22363;SDS011;11349;53.412;-1.328;2023-08-08T08:20:54;4.95;;;1.42;;
22363;SDS011;11349;53.412;-1.328;2023-08-08T08:23:20;7.38;;;1.40;;
22363;SDS011;11349;53.412;-1.328;2023-08-08T08:25:45;3.75;;;1.40;;
22363;SDS011;11349;53.412;-1.328;2023-08-08T08:28:11;2.63;;;0.80;;
22363;SDS011;11349;53.412;-1.328;2023-08-08T08:30:37;5.32;;;1.20;;
22363;SDS011;11349;53.412;-1.328;2023-08-08T08:33:03;3.85;;;0.95;;
22363;SDS011;11349;53.412;-1.328;2023-08-08T08:35:32;2.13;;;0.95;;
22363;SDS011;11349;53.412;-1.328;2023-08-08T08:37:58;3.80;;;1.00;;
22363;SDS011;11349;53.412;-1.328;2023-08-08T08:40:24;2.65;;;0.90;;
22363;SDS011;11349;53.412;-1.328;2023-08-08T08:42:50;2.55;;;0.70;;
22363;SDS011;11349;53.412;-1.328;2023-08-08T08:45:16;7.00;;;1.13;;
22363;SDS011;11349;53.412;-1.328;2023-08-08T08:47:46;2.88;;;1.10;;
22363;SDS011;11349;53.412;-1.328;2023-08-08T08:50:14;2.40;;;0.93;;
22363;SDS011;11349;53.412;-1.328;2023-08-08T08:52:41;3.45;;;1.30;;
22363;SDS011;11349;53.412;-1.328;2023-08-08T08:55:08;1.88;;;0.93;;
22363;SDS011;11349;53.412;-1.328;2023-08-08T08:57:34;4.07;;;1.42;;
22363;SDS011;11349;53.412;-1.328;2023-08-08T09:00:02;3.85;;;1.40;;
22363;SDS011;11349;53.412;-1.328;2023-08-08T09:02:28;2.17;;;1.17;;
22363;SDS011;11349;53.412;-1.328;2023-08-08T09:04:54;5.65;;;1.35;;
22363;SDS011;11349;53.412;-1.328;2023-08-08T09:07:20;2.55;;;1.00;;
22363;SDS011;11349;53.412;-1.328;2023-08-08T09:09:51;3.25;;;1.05;;
22363;SDS011;11349;53.412;-1.328;2023-08-08T09:12:17;3.00;;;1.17;;
22363;SDS011;11349;53.412;-1.328;2023-08-08T09:14:44;3.97;;;1.23;;
22363;SDS011;11349;53.412;-1.328;2023-08-08T09:17:10;3.33;;;1.35;;
22363;SDS011;11349;53.412;-1.328;2023-08-08T09:19:43;3.05;;;1.05;;
22363;SDS011;11349;53.412;-1.328;2023-08-08T09:22:12;3.40;;;1.27;;
22363;SDS011;11349;53.412;-1.328;2023-08-08T09:24:41;4.22;;;1.38;;
22363;SDS011;11349;53.412;-1.328;2023-08-08T09:27:08;4.35;;;1.08;;
22363;SDS011;11349;53.412;-1.328;2023-08-08T09:29:34;3.00;;;0.93;;
22363;SDS011;11349;53.412;-1.328;2023-08-08T09:32:04;3.60;;;1.00;;
22363;SDS011;11349;53.412;-1.328;2023-08-08T09:34:31;2.58;;;1.00;;
22363;SDS011;11349;53.412;-1.328;2023-08-08T09:36:57;1.63;;;0.80;;
22363;SDS011;11349;53.412;-1.328;2023-08-08T09:39:23;2.40;;;0.82;;
22363;SDS011;11349;53.412;-1.328;2023-08-08T09:41:49;2.92;;;1.10;;
22363;SDS011;11349;53.412;-1.328;2023-08-08T09:44:15;3.65;;;0.82;;
22363;SDS011;11349;53.412;-1.328;2023-08-08T09:46:41;1.92;;;0.95;;
22363;SDS011;11349;53.412;-1.328;2023-08-08T09:49:07;2.58;;;0.82;;
22363;SDS011;11349;53.412;-1.328;2023-08-08T09:51:36;1.92;;;0.82;;
22363;SDS011;11349;53.412;-1.328;2023-08-08T09:54:01;2.47;;;0.90;;
22363;SDS011;11349;53.412;-1.328;2023-08-08T09:56:32;2.20;;;0.80;;
22363;SDS011;11349;53.412;-1.328;2023-08-08T09:58:59;2.28;;;0.52;;
22363;SDS011;11349;53.412;-1.328;2023-08-08T10:01:26;4.05;;;0.77;;
22363;SDS011;11349;53.412;-1.328;2023-08-08T10:03:52;2.95;;;0.80;;
22363;SDS011;11349;53.412;-1.328;2023-08-08T10:06:18;4.10;;;1.13;;
22363;SDS011;11349;53.412;-1.328;2023-08-08T10:08:45;4.22;;;0.90;;
22363;SDS011;11349;53.412;-1.328;2023-08-08T10:11:11;13.55;;;2.25;;
22363;SDS011;11349;53.412;-1.328;2023-08-08T10:13:46;2.53;;;0.93;;
22363;SDS011;11349;53.412;-1.328;2023-08-08T10:16:14;2.97;;;1.10;;
22363;SDS011;11349;53.412;-1.328;2023-08-08T10:18:41;2.55;;;0.80;;
22363;SDS011;11349;53.412;-1.328;2023-08-08T10:21:07;3.70;;;0.95;;
22363;SDS011;11349;53.412;-1.328;2023-08-08T10:23:35;3.53;;;0.90;;
22363;SDS011;11349;53.412;-1.328;2023-08-08T10:26:02;3.55;;;0.70;;
22363;SDS011;11349;53.412;-1.328;2023-08-08T10:28:28;2.00;;;1.00;;
22363;SDS011;11349;53.412;-1.328;2023-08-08T10:30:57;5.05;;;0.90;;
22363;SDS011;11349;53.412;-1.328;2023-08-08T10:33:39;2.72;;;0.80;;
22363;SDS011;11349;53.412;-1.328;2023-08-08T10:36:06;4.85;;;0.70;;
22363;SDS011;11349;53.412;-1.328;2023-08-08T10:38:42;4.72;;;1.00;;
22363;SDS011;11349;53.412;-1.328;2023-08-08T10:41:12;3.83;;;0.90;;
22363;SDS011;11349;53.412;-1.328;2023-08-08T10:43:54;3.25;;;1.08;;
22363;SDS011;11349;53.412;-1.328;2023-08-08T10:46:24;3.13;;;1.02;;
22363;SDS011;11349;53.412;-1.328;2023-08-08T10:48:58;2.45;;;0.95;;
22363;SDS011;11349;53.412;-1.328;2023-08-08T10:51:38;2.13;;;0.95;;
22363;SDS011;11349;53.412;-1.328;2023-08-08T10:54:09;2.10;;;0.90;;
22363;SDS011;11349;53.412;-1.328;2023-08-08T10:56:39;1.88;;;0.80;;
22363;SDS011;11349;53.412;-1.328;2023-08-08T10:59:15;4.57;;;1.13;;
22363;SDS011;11349;53.412;-1.328;2023-08-08T11:01:45;3.05;;;0.80;;
22363;SDS011;11349;53.412;-1.328;2023-08-08T11:04:12;2.97;;;0.98;;
22363;SDS011;11349;53.412;-1.328;2023-08-08T11:06:39;3.55;;;1.10;;
22363;SDS011;11349;53.412;-1.328;2023-08-08T11:09:05;1.92;;;0.60;;
22363;SDS011;11349;53.412;-1.328;2023-08-08T11:11:41;2.53;;;1.25;;
22363;SDS011;11349;53.412;-1.328;2023-08-08T11:14:09;1.80;;;0.50;;
22363;SDS011;11349;53.412;-1.328;2023-08-08T11:16:39;2.53;;;1.00;;
22363;SDS011;11349;53.412;-1.328;2023-08-08T11:19:05;4.90;;;0.90;;
22363;SDS011;11349;53.412;-1.328;2023-08-08T11:21:41;3.60;;;0.90;;
22363;SDS011;11349;53.412;-1.328;2023-08-08T11:24:08;1.83;;;0.73;;
22363;SDS011;11349;53.412;-1.328;2023-08-08T11:26:35;3.65;;;1.13;;
22363;SDS011;11349;53.412;-1.328;2023-08-08T11:29:02;2.08;;;0.82;;
22363;SDS011;11349;53.412;-1.328;2023-08-08T11:31:30;2.28;;;0.88;;
22363;SDS011;11349;53.412;-1.328;2023-08-08T11:33:58;3.65;;;0.85;;
22363;SDS011;11349;53.412;-1.328;2023-08-08T11:36:24;1.73;;;0.90;;
22363;SDS011;11349;53.412;-1.328;2023-08-08T11:38:51;2.35;;;1.08;;
22363;SDS011;11349;53.412;-1.328;2023-08-08T11:41:20;4.03;;;1.20;;
22363;SDS011;11349;53.412;-1.328;2023-08-08T11:43:48;3.88;;;1.25;;
22363;SDS011;11349;53.412;-1.328;2023-08-08T11:46:15;4.00;;;1.20;;
22363;SDS011;11349;53.412;-1.328;2023-08-08T11:48:42;4.35;;;1.27;;
22363;SDS011;11349;53.412;-1.328;2023-08-08T11:51:13;3.35;;;1.08;;
22363;SDS011;11349;53.412;-1.328;2023-08-08T11:53:50;6.18;;;1.20;;
22363;SDS011;11349;53.412;-1.328;2023-08-08T11:56:18;5.72;;;1.42;;
22363;SDS011;11349;53.412;-1.328;2023-08-08T11:58:45;2.90;;;1.00;;
22363;SDS011;11349;53.412;-1.328;2023-08-08T12:01:12;2.83;;;1.10;;
22363;SDS011;11349;53.412;-1.328;2023-08-08T12:03:39;5.28;;;1.38;;
22363;SDS011;11349;53.412;-1.328;2023-08-08T12:06:15;4.30;;;1.65;;
22363;SDS011;11349;53.412;-1.328;2023-08-08T12:08:45;3.97;;;1.70;;
22363;SDS011;11349;53.412;-1.328;2023-08-08T12:11:12;4.60;;;1.60;;
22363;SDS011;11349;53.412;-1.328;2023-08-08T12:13:38;3.53;;;1.50;;
22363;SDS011;11349;53.412;-1.328;2023-08-08T12:16:09;2.47;;;1.25;;
22363;SDS011;11349;53.412;-1.328;2023-08-08T12:18:36;4.15;;;0.98;;
22363;SDS011;11349;53.412;-1.328;2023-08-08T12:21:04;4.07;;;1.23;;
22363;SDS011;11349;53.412;-1.328;2023-08-08T12:23:30;2.83;;;0.80;;
22363;SDS011;11349;53.412;-1.328;2023-08-08T12:25:56;3.15;;;0.73;;
22363;SDS011;11349;53.412;-1.328;2023-08-08T12:28:22;3.33;;;1.13;;
22363;SDS011;11349;53.412;-1.328;2023-08-08T12:30:48;2.25;;;1.08;;
22363;SDS011;11349;53.412;-1.328;2023-08-08T12:33:14;3.60;;;1.10;;
22363;SDS011;11349;53.412;-1.328;2023-08-08T12:35:40;6.93;;;1.33;;
22363;SDS011;11349;53.412;-1.328;2023-08-08T12:38:05;3.60;;;1.52;;
22363;SDS011;11349;53.412;-1.328;2023-08-08T12:40:31;4.28;;;1.90;;
22363;SDS011;11349;53.412;-1.328;2023-08-08T12:42:57;3.20;;;1.05;;
22363;SDS011;11349;53.412;-1.328;2023-08-08T12:45:22;3.45;;;1.42;;
22363;SDS011;11349;53.412;-1.328;2023-08-08T12:47:48;6.53;;;2.60;;
22363;SDS011;11349;53.412;-1.328;2023-08-08T12:50:14;18.30;;;4.78;;
22363;SDS011;11349;53.412;-1.328;2023-08-08T12:52:40;35.67;;;7.75;;
22363;SDS011;11349;53.412;-1.328;2023-08-08T12:55:06;17.08;;;4.57;;
22363;SDS011;11349;53.412;-1.328;2023-08-08T12:57:32;16.02;;;3.67;;
22363;SDS011;11349;53.412;-1.328;2023-08-08T12:59:58;3.92;;;1.70;;
22363;SDS011;11349;53.412;-1.328;2023-08-08T13:02:24;3.22;;;1.20;;
22363;SDS011;11349;53.412;-1.328;2023-08-08T13:04:50;7.68;;;1.35;;
22363;SDS011;11349;53.412;-1.328;2023-08-08T13:07:16;2.55;;;0.93;;
22363;SDS011;11349;53.412;-1.328;2023-08-08T13:09:42;2.97;;;1.20;;
22363;SDS011;11349;53.412;-1.328;2023-08-08T13:12:07;3.50;;;1.08;;
22363;SDS011;11349;53.412;-1.328;2023-08-08T13:14:33;1.70;;;0.80;;
22363;SDS011;11349;53.412;-1.328;2023-08-08T13:16:59;3.78;;;1.20;;
22363;SDS011;11349;53.412;-1.328;2023-08-08T13:19:25;3.55;;;0.98;;
22363;SDS011;11349;53.412;-1.328;2023-08-08T13:21:51;2.15;;;1.02;;
22363;SDS011;11349;53.412;-1.328;2023-08-08T13:24:17;5.97;;;2.15;;
22363;SDS011;11349;53.412;-1.328;2023-08-08T13:26:43;2.38;;;0.90;;
22363;SDS011;11349;53.412;-1.328;2023-08-08T13:29:09;2.28;;;0.90;;
22363;SDS011;11349;53.412;-1.328;2023-08-08T13:31:36;3.20;;;0.90;;
22363;SDS011;11349;53.412;-1.328;2023-08-08T13:34:02;3.88;;;0.85;;
22363;SDS011;11349;53.412;-1.328;2023-08-08T13:36:28;5.72;;;1.00;;
22363;SDS011;11349;53.412;-1.328;2023-08-08T13:38:54;4.88;;;0.70;;
22363;SDS011;11349;53.412;-1.328;2023-08-08T13:41:20;2.20;;;0.80;;
22363;SDS011;11349;53.412;-1.328;2023-08-08T13:43:45;1.77;;;0.52;;
22363;SDS011;11349;53.412;-1.328;2023-08-08T13:46:11;3.42;;;1.10;;
22363;SDS011;11349;53.412;-1.328;2023-08-08T13:48:37;2.03;;;0.80;;
22363;SDS011;11349;53.412;-1.328;2023-08-08T13:51:03;4.07;;;0.90;;
22363;SDS011;11349;53.412;-1.328;2023-08-08T13:53:28;2.65;;;0.90;;
22363;SDS011;11349;53.412;-1.328;2023-08-08T13:55:55;4.93;;;1.02;;
22363;SDS011;11349;53.412;-1.328;2023-08-08T13:58:21;4.00;;;0.70;;
22363;SDS011;11349;53.412;-1.328;2023-08-08T14:00:50;2.88;;;0.70;;
22363;SDS011;11349;53.412;-1.328;2023-08-08T14:03:16;2.95;;;1.35;;
22363;SDS011;11349;53.412;-1.328;2023-08-08T14:05:42;2.75;;;0.70;;
22363;SDS011;11349;53.412;-1.328;2023-08-08T14:08:09;1.92;;;0.60;;
22363;SDS011;11349;53.412;-1.328;2023-08-08T14:10:35;2.50;;;0.82;;
22363;SDS011;11349;53.412;-1.328;2023-08-08T14:13:01;2.22;;;0.70;;
22363;SDS011;11349;53.412;-1.328;2023-08-08T14:15:27;2.65;;;0.70;;
22363;SDS011;11349;53.412;-1.328;2023-08-08T14:17:53;2.00;;;0.70;;
22363;SDS011;11349;53.412;-1.328;2023-08-08T14:20:19;2.28;;;0.90;;
22363;SDS011;11349;53.412;-1.328;2023-08-08T14:22:45;2.45;;;0.90;;
22363;SDS011;11349;53.412;-1.328;2023-08-08T14:25:12;3.15;;;1.00;;
22363;SDS011;11349;53.412;-1.328;2023-08-08T14:27:38;2.53;;;0.70;;
22363;SDS011;11349;53.412;-1.328;2023-08-08T14:30:04;3.28;;;0.70;;
22363;SDS011;11349;53.412;-1.328;2023-08-08T14:32:30;3.15;;;1.33;;
22363;SDS011;11349;53.412;-1.328;2023-08-08T14:34:56;2.67;;;0.55;;